Terminal Aerodrome Forecast
Issued by NWS

Home | Current Version | Previous Version | Text Only | Print | Product List | Glossary On
Versions: 1 2 3 4 5 6 7 8 9 10 11 12 13 14 15 16 17
000
FTUS46 KSEW 172337
TAFPAE
TAF
KPAE 172337Z 1800/1824 19008KT P6SM VCSH SCT030 BKN040
     FM180800 16008KT P6SM BKN015 OVC025
     FM181600 16009KT P6SM SCT020 SCT045 BKN200
     FM182000 18010KT P6SM SCT120 BKN200=

USA.gov is the U.S. government's official web portal to all federal, state and local government web resources and services.